Time;durP1;ratioP1;P1;durP2;ratioP2;P2;SDS_P1;SDS_P2;PMS_P1;PMS_P2;Temp;Humidity;BMP_temperature;BMP_pressure;BME280_temperature;BME280_humidity;BME280_pressure;Samples;Min_cycle;Max_cycle;Signal;HPM_P1;HPM_P2
2022/11/18 00:01:08;;;;;;;7.60;6.17;;;;;;;1.17;66.41;98246.29;1779406;79;21005;-39
2022/11/18 00:03:36;;;;;;;9.38;5.62;;;;;;;1.22;66.57;98249.31;1779549;80;21091;-39
2022/11/18 00:06:04;;;;;;;5.67;4.12;;;;;;;1.23;66.20;98251.67;1779484;80;21634;-39
2022/11/18 00:08:32;;;;;;;7.40;5.60;;;;;;;1.21;65.86;98251.20;1778706;79;20959;-39
2022/11/18 00:11:08;;;;;;;9.48;5.62;;;;;;;1.16;65.83;98251.39;1778963;80;20963;-39
2022/11/18 00:16:23;;;;;;;9.38;6.03;;;;;;;1.02;65.68;98250.86;1778945;80;21253;-39
2022/11/18 00:18:50;;;;;;;8.85;6.08;;;;;;;0.92;66.00;98251.23;1778779;80;20975;-39
2022/11/18 00:21:17;;;;;;;9.60;6.37;;;;;;;0.92;66.33;98245.89;1762120;80;20959;-39
2022/11/18 00:23:44;;;;;;;8.58;6.70;;;;;;;0.89;66.25;98247.88;1778659;80;21014;-39
2022/11/18 00:26:12;;;;;;;6.92;5.60;;;;;;;0.84;66.41;98254.19;1778844;79;20986;-39
2022/11/18 00:28:40;;;;;;;8.35;5.83;;;;;;;0.84;66.60;98249.41;1778759;80;21112;-39
2022/11/18 00:31:10;;;;;;;9.60;5.72;;;;;;;0.90;66.75;98250.79;1778741;79;20991;-39
2022/11/18 00:33:37;;;;;;;;;;;;;;;0.91;66.52;98247.57;1781410;79;20916;-39
2022/11/18 00:36:06;;;;;;;8.00;5.78;;;;;;;0.93;66.48;98251.47;1778683;80;20491;-39
2022/11/18 00:38:32;;;;;;;6.72;5.65;;;;;;;0.84;66.99;98251.52;1779128;79;21027;-39
2022/11/18 00:41:12;;;;;;;9.73;6.15;;;;;;;0.89;66.96;98246.55;1778760;79;21207;-39
2022/11/18 00:43:38;;;;;;;7.87;5.20;;;;;;;0.98;66.67;98249.16;1772441;80;21021;-39
2022/11/18 00:46:07;;;;;;;8.30;5.67;;;;;;;0.98;66.28;98247.28;1778716;80;21015;-39
2022/11/18 00:48:36;;;;;;;9.20;6.15;;;;;;;0.98;66.38;98249.95;1778773;79;20964;-39
2022/11/18 00:51:13;;;;;;;11.48;5.90;;;;;;;0.97;66.29;98244.38;1778769;80;21064;-39
2022/11/18 00:53:40;;;;;;;8.70;5.75;;;;;;;0.96;66.41;98244.17;1778771;80;21314;-39
2022/11/18 00:56:07;;;;;;;9.85;5.70;;;;;;;0.97;66.47;98245.71;1781247;79;20971;-39
2022/11/18 00:58:36;;;;;;;11.28;5.92;;;;;;;0.99;66.42;98246.18;1784120;80;20991;-39
2022/11/18 01:01:03;;;;;;;9.18;5.47;;;;;;;0.99;66.33;98249.40;1784289;80;20963;-39
2022/11/18 01:03:30;;;;;;;11.60;6.03;;;;;;;1.03;66.15;98252.98;1784171;80;20963;-39
2022/11/18 01:05:56;;;;;;;9.93;5.58;;;;;;;0.99;66.07;98254.19;1784256;80;21253;-39
2022/11/18 01:08:24;;;;;;;9.48;5.67;;;;;;;0.90;66.02;98250.79;1784036;80;21448;-39
2022/11/18 01:10:51;;;;;;;7.25;5.30;;;;;;;0.85;66.20;98252.30;1784399;80;21046;-39
2022/11/18 01:13:19;;;;;;;8.23;5.60;;;;;;;0.78;66.28;98256.02;1784235;80;20962;-39
2022/11/18 01:15:50;;;;;;;7.10;5.30;;;;;;;0.74;66.43;98261.22;1784245;79;20999;-39
2022/11/18 01:18:22;;;;;;;8.03;5.33;;;;;;;0.71;66.99;98254.42;1784166;79;21050;-38
2022/11/18 01:20:48;;;;;;;7.55;5.37;;;;;;;0.76;67.18;98252.91;1784398;80;21026;-39
2022/11/18 01:23:17;;;;;;;6.25;5.08;;;;;;;0.81;67.11;98250.06;1784345;79;21089;-39
2022/11/18 01:25:45;;;;;;;6.50;5.35;;;;;;;0.82;66.82;98255.05;1784222;79;20962;-38
2022/11/18 01:28:12;;;;;;;12.15;5.83;;;;;;;0.82;66.84;98255.05;1784147;80;21042;-39
2022/11/18 01:30:40;;;;;;;7.17;5.15;;;;;;;0.85;66.66;98245.09;1784258;80;21188;-39
2022/11/18 01:33:07;;;;;;;8.00;5.78;;;;;;;0.83;66.55;98249.16;1784192;80;21461;-39
2022/11/18 01:35:36;;;;;;;9.20;5.47;;;;;;;0.82;66.62;98242.29;1784089;79;21026;-39
2022/11/18 01:38:03;;;;;;;7.15;4.90;;;;;;;0.82;66.69;98242.29;1784351;79;20919;-39
2022/11/18 01:40:30;;;;;;;9.00;5.97;;;;;;;0.78;66.72;98248.02;1784229;79;21027;-39
2022/11/18 01:42:58;;;;;;;8.05;5.62;;;;;;;0.75;67.11;98250.79;1784143;79;21227;-39
2022/11/18 01:45:38;;;;;;;7.72;5.75;;;;;;;0.76;67.18;98252.91;1784230;80;21006;-39
2022/11/18 01:48:27;;;;;;;7.05;5.47;;;;;;;0.77;67.05;98255.81;1784299;80;20974;-39
2022/11/18 01:51:08;;;;;;;8.78;5.70;;;;;;;0.78;66.67;98258.14;1784308;80;21365;-39
2022/11/18 01:53:45;;;;;;;8.25;5.85;;;;;;;0.75;66.70;98260.12;1781380;80;21034;-39
2022/11/18 01:56:16;;;;;;;8.80;6.08;;;;;;;0.80;66.66;98261.83;1781421;80;21521;-39
2022/11/18 01:58:54;;;;;;;10.75;5.50;;;;;;;0.85;66.57;98263.77;1778511;80;21538;-39
2022/11/18 02:01:21;;;;;;;8.75;6.10;;;;;;;0.91;66.52;98271.03;1778777;79;20955;-39
2022/11/18 02:03:49;;;;;;;9.70;6.65;;;;;;;0.91;66.23;98269.70;1778743;80;21086;-39
2022/11/18 02:06:16;;;;;;;7.58;6.05;;;;;;;0.88;65.92;98267.66;1767799;80;21074;-39
2022/11/18 02:08:43;;;;;;;10.95;6.20;;;;;;;0.85;65.56;98269.65;1778612;79;21226;-39
2022/11/18 02:13:57;;;;;;;8.20;6.15;;;;;;;0.73;65.40;98268.20;1778705;80;20927;-39
2022/11/18 02:16:42;;;;;;;10.30;6.53;;;;;;;0.64;65.05;98260.80;1778590;80;21031;-39
2022/11/18 02:19:25;;;;;;;8.23;6.25;;;;;;;0.57;65.15;98263.20;1778687;79;20998;-39
2022/11/18 02:22:38;;;;;;;8.10;6.30;;;;;;;0.51;64.96;98268.47;1778795;80;21127;-39
2022/11/18 02:25:48;;;;;;;9.88;6.30;;;;;;;0.43;64.66;98264.20;1719200;83;21597;-39
2022/11/18 02:29:00;;;;;;;19.42;7.30;;;;;;;0.36;64.71;98275.89;1778431;79;20935;-39
2022/11/18 02:31:51;;;;;;;10.65;6.47;;;;;;;0.34;64.81;98275.41;1778547;80;21494;-38
2022/11/18 02:34:26;;;;;;;7.55;6.28;;;;;;;0.42;65.10;98278.63;1772594;79;21074;-39
2022/11/18 02:37:11;;;;;;;8.18;6.25;;;;;;;0.54;64.89;98278.48;1778554;79;21235;-39
2022/11/18 02:39:42;;;;;;;8.23;6.45;;;;;;;0.66;64.77;98285.27;1778765;80;21677;-39
2022/11/18 02:42:11;;;;;;;9.35;6.15;;;;;;;0.74;64.54;98283.11;1777978;79;20911;-39
2022/11/18 02:44:41;;;;;;;10.00;7.05;;;;;;;0.85;64.36;98277.66;1778874;80;20935;-39
2022/11/18 02:47:09;;;;;;;16.07;6.62;;;;;;;0.88;63.81;98274.33;1778844;80;20927;-39
2022/11/18 02:49:40;;;;;;;10.48;6.97;;;;;;;0.80;63.08;98272.50;1778869;79;21085;-39
2022/11/18 02:52:07;;;;;;;9.05;6.33;;;;;;;0.69;62.88;98276.63;1778842;79;21461;-39
2022/11/18 02:54:37;;;;;;;5.28;4.72;;;;;;;0.54;63.28;98275.81;1778988;79;20908;-39
2022/11/18 02:57:03;;;;;;;8.58;6.28;;;;;;;0.56;63.51;98281.08;1782140;79;20951;-39
2022/11/18 02:59:30;;;;;;;8.85;6.65;;;;;;;0.63;63.65;98283.25;1784111;80;21066;-39
2022/11/18 03:01:57;;;;;;;9.58;7.22;;;;;;;0.68;63.62;98279.05;1739480;80;21157;-39
2022/11/18 03:04:24;;;;;;;9.45;6.45;;;;;;;0.70;63.11;98280.31;1784222;79;21058;-39
2022/11/18 03:06:57;;;;;;;12.43;7.70;;;;;;;0.66;62.88;98285.27;1784120;80;21002;-39
2022/11/18 03:09:28;;;;;;;10.18;7.42;;;;;;;0.69;62.89;98283.29;1783514;80;21010;-39
2022/11/18 03:12:33;;;;;;;9.23;7.22;;;;;;;0.67;62.59;98280.96;1784435;79;21551;-39
2022/11/18 03:15:23;;;;;;;8.73;7.05;;;;;;;0.61;62.40;98282.23;1784104;80;21124;-39
2022/11/18 03:18:34;;;;;;;7.42;5.75;;;;;;;0.52;62.64;98287.37;1784288;79;20954;-39
2022/11/18 03:21:09;;;;;;;10.48;7.25;;;;;;;0.49;62.75;98292.77;1784369;79;21564;-39
2022/11/18 03:23:43;;;;;;;9.98;7.47;;;;;;;0.47;62.96;98297.66;1784205;80;21081;-39
2022/11/18 03:26:18;;;;;;;10.98;7.40;;;;;;;0.43;62.75;98296.19;1764803;80;21484;-39
2022/11/18 03:28:54;;;;;;;10.68;7.33;;;;;;;0.37;62.59;98302.78;1783638;80;21729;-39
2022/11/18 03:31:39;;;;;;;9.18;7.12;;;;;;;0.31;62.79;98300.05;1784226;79;20915;-39
2022/11/18 03:34:11;;;;;;;11.12;7.00;;;;;;;0.21;62.61;98301.72;1764540;80;20987;-39
2022/11/18 03:36:42;;;;;;;7.80;6.60;;;;;;;0.16;63.09;98308.55;1774378;80;20947;-39
2022/11/18 03:39:09;;;;;;;9.43;7.12;;;;;;;0.13;63.03;98309.73;1784144;80;21014;-39
2022/11/18 03:41:41;;;;;;;10.35;7.40;;;;;;;0.13;63.21;98310.52;1784327;79;21205;-39
2022/11/18 03:44:15;;;;;;;11.28;8.38;;;;;;;0.13;62.92;98305.73;1784283;80;21532;-38
2022/11/18 03:46:51;;;;;;;10.63;7.37;;;;;;;0.13;63.01;98309.19;1784265;80;20951;-39
2022/11/18 03:49:23;;;;;;;10.65;7.50;;;;;;;0.17;62.82;98311.45;1784252;80;21081;-39
2022/11/18 03:51:54;;;;;;;13.70;7.35;;;;;;;0.21;62.87;98310.26;1784351;79;21077;-39
2022/11/18 03:54:28;;;;;;;10.45;7.80;;;;;;;0.24;62.97;98304.31;1784402;80;21131;-39
2022/11/18 03:57:10;;;;;;;11.90;7.35;;;;;;;0.20;62.72;98306.81;1781850;79;21039;-39
2022/11/18 03:59:46;;;;;;;8.25;6.70;;;;;;;0.12;62.74;98300.95;1778928;80;21105;-39
2022/11/18 04:02:20;;;;;;;10.48;7.62;;;;;;;0.00;62.78;98295.50;1778815;79;20920;-39
2022/11/18 04:04:49;;;;;;;11.70;7.28;;;;;;;-0.11;62.70;98291.05;1778742;79;21012;-39
2022/11/18 04:07:36;;;;;;;8.68;5.72;;;;;;;-0.15;62.90;98299.44;1778878;79;21112;-39
2022/11/18 04:10:16;;;;;;;9.38;7.40;;;;;;;-0.21;63.02;98298.57;1778583;80;20955;-39
2022/11/18 04:12:49;;;;;;;10.93;7.47;;;;;;;-0.22;63.33;98301.78;1778956;79;20983;-39
2022/11/18 04:15:16;;;;;;;10.05;7.12;;;;;;;-0.15;63.67;98298.66;1769803;80;21066;-39
2022/11/18 04:17:43;;;;;;;10.20;7.65;;;;;;;-0.14;63.92;98294.87;1778781;79;21595;-39
2022/11/18 04:20:17;;;;;;;12.25;8.23;;;;;;;-0.04;63.69;98297.20;1778895;79;21054;-39
2022/11/18 04:22:45;;;;;;;10.10;8.23;;;;;;;-0.04;63.66;98290.55;1778736;79;20967;-39
2022/11/18 04:25:12;;;;;;;11.10;8.28;;;;;;;-0.12;63.31;98294.80;1778850;80;21010;-39
2022/11/18 04:27:39;;;;;;;12.60;8.50;;;;;;;-0.18;63.33;98296.05;1778817;80;21207;-39
2022/11/18 04:30:08;;;;;;;11.80;8.48;;;;;;;-0.28;63.63;98294.25;1778877;80;21031;-39
2022/11/18 04:32:35;;;;;;;13.65;8.98;;;;;;;-0.32;64.09;98310.08;1778998;79;21121;-39
2022/11/18 04:35:02;;;;;;;15.30;8.60;;;;;;;-0.29;64.21;98301.45;1778729;79;20948;-39
2022/11/18 04:37:29;;;;;;;13.75;9.03;;;;;;;-0.30;64.14;98317.77;1778848;79;20954;-39
2022/11/18 04:39:56;;;;;;;10.88;8.15;;;;;;;-0.35;64.48;98322.70;1778677;79;20920;-38
2022/11/18 04:42:22;;;;;;;11.90;7.67;;;;;;;-0.35;64.62;98326.70;1778923;79;21018;-39
2022/11/18 04:44:49;;;;;;;13.68;8.03;;;;;;;-0.37;64.53;98322.22;1778840;80;21297;-39
2022/11/18 04:47:16;;;;;;;11.63;8.15;;;;;;;-0.37;64.59;98315.56;1778704;80;20998;-39
2022/11/18 04:49:43;;;;;;;9.58;7.67;;;;;;;-0.38;64.46;98311.88;1778631;79;20923;-39
2022/11/18 04:52:10;;;;;;;12.00;8.75;;;;;;;-0.46;64.66;98308.91;1778766;79;21019;-39
2022/11/18 04:54:37;;;;;;;11.40;8.28;;;;;;;-0.44;64.82;98313.36;1778701;80;21046;-39
2022/11/18 04:57:04;;;;;;;10.80;8.48;;;;;;;-0.45;64.74;98321.12;1780763;79;21079;-39
2022/11/18 04:59:30;;;;;;;10.45;7.80;;;;;;;-0.44;64.86;98318.68;1784003;80;21516;-39
2022/11/18 05:01:59;;;;;;;11.50;8.03;;;;;;;-0.48;64.54;98316.41;1766927;80;20997;-38
2022/11/18 05:04:29;;;;;;;10.23;7.53;;;;;;;-0.49;64.57;98316.74;1702653;84;21605;-39
2022/11/18 05:06:56;;;;;;;10.60;7.40;;;;;;;-0.54;64.62;98315.02;1702866;84;21898;-39
2022/11/18 05:09:22;;;;;;;14.68;7.53;;;;;;;-0.56;64.71;98318.53;1702605;84;21205;-39
2022/11/18 05:14:35;;;;;;;9.85;7.67;;;;;;;-0.50;64.73;98316.50;1702571;84;20945;-39
2022/11/18 05:17:04;;;;;;;12.05;7.70;;;;;;;-0.51;64.86;98325.03;1684880;85;21056;-38
2022/11/18 05:19:32;;;;;;;13.60;7.53;;;;;;;-0.49;65.02;98331.38;1684946;85;20989;-39
2022/11/18 05:21:59;;;;;;;9.55;7.50;;;;;;;-0.53;64.74;98332.53;1702638;84;21134;-39
2022/11/18 05:24:25;;;;;;;11.83;7.45;;;;;;;-0.53;64.73;98333.86;1702495;84;21028;-39
2022/11/18 05:26:52;;;;;;;9.50;7.10;;;;;;;-0.43;64.85;98338.10;1702807;84;21517;-39
2022/11/18 05:29:19;;;;;;;9.03;7.05;;;;;;;-0.28;64.42;98342.97;1684846;85;21025;-39
2022/11/18 05:31:47;;;;;;;12.40;8.18;;;;;;;-0.11;64.19;98345.66;1684712;85;21938;-39
2022/11/18 05:34:13;;;;;;;9.65;7.15;;;;;;;0.07;63.89;98349.63;1702540;84;21202;-38
2022/11/18 05:36:41;;;;;;;10.50;7.65;;;;;;;0.17;63.31;98352.77;1702589;84;21534;-39
2022/11/18 05:39:08;;;;;;;10.50;7.80;;;;;;;0.22;62.89;98362.47;1702643;84;21012;-39
2022/11/18 05:44:21;;;;;;;18.05;8.85;;;;;;;0.19;62.61;98366.56;1684967;85;21096;-38
2022/11/18 05:46:47;;;;;;;13.83;9.33;;;;;;;0.25;62.62;98359.17;1684757;85;21160;-39
2022/11/18 05:49:14;;;;;;;11.97;8.88;;;;;;;0.31;62.83;98368.03;1684676;85;21060;-39
2022/11/18 05:51:41;;;;;;;11.40;8.30;;;;;;;0.35;62.19;98373.50;1684759;85;21040;-38
2022/11/18 05:54:08;;;;;;;12.45;9.20;;;;;;;0.28;61.99;98369.22;1684780;85;21047;-39
2022/11/18 05:56:38;;;;;;;13.78;9.15;;;;;;;0.29;61.83;98372.88;1702894;83;21020;-39
2022/11/18 05:59:06;;;;;;;13.58;9.23;;;;;;;0.34;62.27;98372.72;1721480;83;21221;-39
2022/11/18 06:02:03;;;;;;;12.40;9.20;;;;;;;0.42;62.38;98370.61;1721287;83;21019;-39
2022/11/18 06:04:45;;;;;;;12.00;8.90;;;;;;;0.50;62.15;98375.67;1721288;83;21043;-39
2022/11/18 06:07:26;;;;;;;13.15;8.93;;;;;;;0.57;61.97;98368.53;1721366;83;21019;-39
2022/11/18 06:09:56;;;;;;;12.50;9.33;;;;;;;0.62;61.54;98377.16;1720947;83;21099;-39
2022/11/18 06:12:26;;;;;;;12.45;8.08;;;;;;;0.65;61.33;98375.72;1721757;83;21107;-39
2022/11/18 06:15:04;;;;;;;12.53;9.13;;;;;;;0.72;61.22;98384.03;1721472;83;21087;-39
2022/11/18 06:17:35;;;;;;;9.88;7.72;;;;;;;0.79;60.65;98377.64;1721596;83;20905;-39
2022/11/18 06:20:05;;;;;;;12.98;8.98;;;;;;;0.77;60.76;98378.52;1721324;83;21588;-39
2022/11/18 06:22:34;;;;;;;12.07;8.65;;;;;;;0.80;60.82;98379.20;1721665;83;21091;-39
2022/11/18 06:25:01;;;;;;;12.98;8.68;;;;;;;0.82;60.70;98377.77;1721623;83;21565;-39
2022/11/18 06:27:28;;;;;;;12.82;9.18;;;;;;;0.77;60.82;98379.31;1721339;83;21501;-39
2022/11/18 06:29:55;;;;;;;11.25;8.08;;;;;;;0.73;60.78;98375.69;1721366;83;21012;-39
2022/11/18 06:32:22;;;;;;;12.37;8.98;;;;;;;0.61;60.88;98369.46;1721356;83;21564;-39
2022/11/18 06:34:48;;;;;;;10.82;8.15;;;;;;;0.52;60.98;98370.81;1721234;83;21505;-38
2022/11/18 06:37:17;;;;;;;13.58;9.25;;;;;;;0.42;61.09;98379.94;1721234;83;23129;-39
2022/11/18 06:39:44;;;;;;;13.72;8.08;;;;;;;0.39;61.09;98388.55;1721294;83;20928;-39
2022/11/18 06:43:37;;;;;;;12.07;8.55;;;;;;;0.40;60.90;98393.34;1721474;83;20897;-38
2022/11/18 06:44:40;;;;;;;10.23;8.00;;;;;;;0.42;61.14;98398.60;1720634;83;21080;-39
2022/11/18 06:47:06;;;;;;;12.20;9.10;;;;;;;0.47;61.15;98398.20;1721385;83;21044;-39
2022/11/18 06:49:33;;;;;;;10.45;8.53;;;;;;;0.51;61.11;98399.13;1721315;83;21140;-38
2022/11/18 06:52:01;;;;;;;11.60;8.25;;;;;;;0.53;61.39;98400.39;1721444;83;20980;-39
2022/11/18 06:54:28;;;;;;;13.70;8.63;;;;;;;0.56;61.23;98400.30;1721289;83;21075;-38
2022/11/18 06:56:55;;;;;;;12.68;8.80;;;;;;;0.54;61.29;98403.81;1721289;83;21004;-39
2022/11/18 06:59:23;;;;;;;11.90;8.35;;;;;;;0.61;61.68;98405.46;1721328;83;21605;-39
2022/11/18 07:01:51;;;;;;;12.23;8.85;;;;;;;0.67;61.66;98409.54;1721317;83;21299;-39
2022/11/18 07:04:19;;;;;;;14.68;9.30;;;;;;;0.72;61.53;98410.70;1721393;83;21089;-39
2022/11/18 07:06:47;;;;;;;13.88;8.90;;;;;;;0.79;61.37;98411.77;1721274;83;21053;-39
2022/11/18 07:09:15;;;;;;;11.88;8.78;;;;;;;0.87;61.40;98408.86;1721414;83;21036;-38
2022/11/18 07:11:42;;;;;;;11.68;8.40;;;;;;;0.95;61.00;98413.38;1721343;83;21027;-39
2022/11/18 07:14:09;;;;;;;13.78;9.30;;;;;;;0.98;60.83;98415.95;1721383;83;21147;-39
2022/11/18 07:16:37;;;;;;;13.30;9.80;;;;;;;1.08;60.44;98425.73;1721474;83;21553;-39
2022/11/18 07:19:09;;;;;;;12.35;9.00;;;;;;;1.06;59.66;98425.28;1721693;83;21503;-39
2022/11/18 07:21:36;;;;;;;13.58;10.10;;;;;;;0.99;59.80;98434.31;1721764;83;21079;-39
2022/11/18 07:24:06;;;;;;;14.50;9.23;;;;;;;1.01;59.86;98438.80;1721526;83;20983;-39
2022/11/18 07:26:34;;;;;;;13.10;9.60;;;;;;;1.04;59.74;98435.48;1721509;83;21270;-39
2022/11/18 07:29:01;;;;;;;13.08;9.73;;;;;;;1.07;59.99;98433.50;1721741;83;20947;-39
2022/11/18 07:31:30;;;;;;;14.07;9.80;;;;;;;1.09;59.76;98436.64;1721474;83;21561;-38
2022/11/18 07:33:57;;;;;;;14.05;9.50;;;;;;;1.09;59.54;98437.98;1721422;83;21044;-39
2022/11/18 07:36:26;;;;;;;16.32;10.40;;;;;;;1.04;59.74;98438.70;1721362;83;21565;-39
2022/11/18 07:38:53;;;;;;;16.30;10.27;;;;;;;1.01;59.68;98444.14;1722052;83;21178;-39
2022/11/18 07:41:25;;;;;;;14.15;10.18;;;;;;;1.03;60.00;98441.91;1721447;83;20992;-39
2022/11/18 07:43:54;;;;;;;13.72;10.30;;;;;;;1.05;60.02;98441.61;1721678;83;20967;-39
2022/11/18 07:46:24;;;;;;;12.82;10.20;;;;;;;1.10;60.38;98440.88;1721356;83;20999;-39
2022/11/18 07:48:53;;;;;;;13.03;10.45;;;;;;;1.14;60.27;98439.14;1721841;83;21035;-39
2022/11/18 07:51:25;;;;;;;15.10;10.65;;;;;;;1.12;59.92;98441.33;1721505;83;21118;-39
2022/11/18 07:53:52;;;;;;;17.48;10.63;;;;;;;1.11;60.06;98451.02;1716852;83;21026;-39
2022/11/18 07:56:19;;;;;;;14.05;10.93;;;;;;;1.18;60.07;98449.95;1721386;83;20976;-39
2022/11/18 07:58:46;;;;;;;18.07;11.10;;;;;;;1.23;60.06;98447.11;1709823;82;21072;-39
2022/11/18 08:01:17;;;;;;;14.73;11.35;;;;;;;1.18;60.14;98446.73;1703512;84;21009;-39
2022/11/18 08:03:44;;;;;;;13.10;10.23;;;;;;;1.24;59.90;98458.81;1703124;84;21238;-39
2022/11/18 08:06:13;;;;;;;14.70;10.85;;;;;;;1.28;59.53;98458.41;1703175;84;21019;-39
2022/11/18 08:08:40;;;;;;;14.73;10.15;;;;;;;1.29;59.35;98455.18;1703886;84;22055;-39
2022/11/18 08:11:11;;;;;;;16.37;10.30;;;;;;;1.23;59.05;98455.91;1703264;84;21610;-39
2022/11/18 08:13:39;;;;;;;12.23;9.53;;;;;;;1.17;59.00;98465.73;1703507;84;21463;-39
2022/11/18 08:16:13;;;;;;;17.35;10.65;;;;;;;1.10;59.02;98462.23;1703285;84;23174;-39
2022/11/18 08:18:41;;;;;;;14.45;10.43;;;;;;;1.15;59.42;98472.75;1702953;84;21504;-39
2022/11/18 08:21:08;;;;;;;16.02;10.95;;;;;;;1.15;59.71;98470.63;1703283;84;21037;-39
2022/11/18 08:23:35;;;;;;;14.87;10.95;;;;;;;1.16;59.94;98467.61;1703465;84;21566;-39
2022/11/18 10:46:41;;;;;;;13.98;10.35;;;;;;;1.57;61.69;98465.66;1869899;76;22175;-39
2022/11/18 10:49:16;;;;;;;13.98;9.98;;;;;;;1.66;61.35;98474.95;1797526;79;21555;-39
2022/11/18 10:52:10;;;;;;;13.45;9.38;;;;;;;1.68;60.52;98474.09;1806425;79;21209;-39
2022/11/18 10:54:37;;;;;;;12.70;9.28;;;;;;;1.67;60.15;98484.55;1802221;79;21492;-39
2022/11/18 10:57:22;;;;;;;12.90;8.85;;;;;;;1.66;59.95;98474.95;1806080;79;21503;-39
2022/11/18 10:59:54;;;;;;;13.48;9.85;;;;;;;1.66;59.66;98481.64;1806350;79;21005;-39
2022/11/18 11:02:34;;;;;;;12.65;9.70;;;;;;;1.63;59.19;98478.28;1806354;79;20931;-39
2022/11/18 11:05:05;;;;;;;8.95;7.05;;;;;;;1.57;59.25;98479.56;1803713;79;21205;-39
2022/11/18 11:07:36;;;;;;;11.00;8.85;;;;;;;1.53;59.44;98474.64;1794443;79;21480;-39
2022/11/18 11:10:12;;;;;;;;;;;;;;;1.51;59.25;98477.62;1792646;80;20939;-39
2022/11/18 11:12:53;;;;;;;19.55;9.00;;;;;;;1.46;59.13;98490.36;1773183;81;20085;-39
2022/11/18 11:15:40;;;;;;;12.07;8.25;;;;;;;1.28;59.84;98493.11;1793268;80;21082;-39
2022/11/18 11:21:00;;;;;;;11.93;8.25;;;;;;;1.24;59.87;98501.53;1792841;80;20983;-39
2022/11/18 11:23:27;;;;;;;11.95;8.90;;;;;;;1.16;60.15;98497.55;1793084;80;20956;-39
2022/11/18 11:26:04;;;;;;;12.20;8.70;;;;;;;1.26;60.16;98507.86;1792984;80;21071;-39
2022/11/18 11:28:45;;;;;;;12.28;8.35;;;;;;;1.25;60.37;98511.66;1793079;80;21030;-39
2022/11/18 11:31:32;;;;;;;10.98;7.85;;;;;;;1.25;60.32;98512.45;1792889;80;21068;-39
2022/11/18 11:34:23;;;;;;;12.25;8.90;;;;;;;1.27;59.84;98533.47;1792801;80;22151;-39
2022/11/18 11:37:07;;;;;;;12.15;9.08;;;;;;;1.26;60.41;98539.36;1792712;80;20995;-39
2022/11/18 11:40:08;;;;;;;13.60;9.20;;;;;;;1.28;60.35;98532.38;1790050;80;20959;-39
2022/11/18 11:43:05;;;;;;;11.10;8.23;;;;;;;1.23;60.33;98540.00;1789981;80;20876;-39
2022/11/18 11:45:46;;;;;;;11.95;8.90;;;;;;;1.25;60.61;98531.14;1789466;80;21181;-39
2022/11/18 11:48:34;;;;;;;11.73;8.65;;;;;;;1.25;60.80;98531.14;1789684;80;22274;-39
2022/11/18 11:51:05;;;;;;;12.65;8.28;;;;;;;1.30;60.51;98539.52;1788191;80;21040;-39
2022/11/18 11:54:15;;;;;;;16.23;8.50;;;;;;;1.30;60.26;98544.31;1789819;80;20951;-39
2022/11/18 11:57:02;;;;;;;13.20;8.93;;;;;;;1.30;59.88;98557.67;1789897;80;21000;-39
2022/11/18 11:59:46;;;;;;;12.65;9.13;;;;;;;1.30;59.78;98562.22;1789354;80;21239;-39
2022/11/18 12:02:43;;;;;;;12.65;9.90;;;;;;;1.32;60.09;98551.98;1789388;80;21083;-39
2022/11/18 12:05:34;;;;;;;12.70;9.53;;;;;;;1.34;60.04;98559.69;1789280;80;20873;-39
2022/11/18 12:08:14;;;;;;;12.23;8.95;;;;;;;1.27;60.37;98567.63;1789608;80;21023;-39
2022/11/18 12:11:14;;;;;;;11.45;8.95;;;;;;;1.22;60.32;98547.77;1789359;80;21540;-39
2022/11/18 12:14:32;;;;;;;12.55;9.18;;;;;;;1.24;60.11;98543.46;1789506;80;21140;-39
2022/11/18 12:17:22;;;;;;;14.07;9.15;;;;;;;1.23;60.23;98529.33;1789435;80;20916;-39
2022/11/18 12:19:49;;;;;;;14.28;10.13;;;;;;;1.26;60.51;98527.89;1789582;80;20952;-39
2022/11/18 12:22:16;;;;;;;15.75;10.63;;;;;;;1.29;60.62;98520.05;1789444;80;20920;-39
2022/11/18 12:24:44;;;;;;;16.60;10.68;;;;;;;1.27;60.70;98528.91;1789581;80;21070;-39
2022/11/18 12:27:26;;;;;;;14.98;10.95;;;;;;;1.30;60.78;98541.65;1789345;80;23160;-39
2022/11/18 12:29:56;;;;;;;14.73;11.00;;;;;;;1.28;60.89;98550.52;1789312;80;20993;-39
2022/11/18 12:32:41;;;;;;;14.83;11.10;;;;;;;1.26;60.89;98556.71;1789199;80;20936;-39
2022/11/18 12:35:16;;;;;;;13.65;10.70;;;;;;;1.30;60.85;98556.33;1788453;80;21597;-39
2022/11/18 12:37:56;;;;;;;16.15;10.93;;;;;;;1.29;60.86;98565.44;1789268;80;21250;-39
2022/11/18 12:40:39;;;;;;;14.70;11.70;;;;;;;1.29;60.82;98577.45;1789702;80;21123;-39
2022/11/18 12:43:45;;;;;;;15.48;10.93;;;;;;;1.28;60.99;98586.56;1769907;80;21062;-39
2022/11/18 12:46:38;;;;;;;15.72;11.35;;;;;;;1.36;60.68;98589.52;1789169;79;21035;-39
2022/11/18 12:49:25;;;;;;;16.52;12.07;;;;;;;1.33;60.75;98573.59;1789288;80;20936;-39
2022/11/18 12:51:55;;;;;;;19.23;11.18;;;;;;;1.31;61.07;98576.57;1757895;80;21032;-39
2022/11/18 12:54:34;;;;;;;21.27;11.75;;;;;;;1.23;61.12;98577.38;1789315;80;23171;-39
2022/11/18 12:57:14;;;;;;;14.83;11.57;;;;;;;1.14;61.42;98567.27;1789233;80;20908;-39
2022/11/18 12:59:41;;;;;;;17.57;12.73;;;;;;;1.03;61.56;98574.57;1785067;80;21076;-39
2022/11/18 13:02:26;;;;;;;17.05;12.15;;;;;;;1.00;61.69;98577.34;1789128;80;21008;-39
2022/11/18 13:05:12;;;;;;;16.17;11.78;;;;;;;0.95;61.79;98572.16;1789313;80;21099;-39
2022/11/18 13:10:36;;;;;;;16.42;11.75;;;;;;;0.87;62.40;98563.62;1789187;80;21004;-39
2022/11/18 13:13:03;;;;;;;19.07;13.18;;;;;;;0.82;62.46;98557.11;1789197;80;21011;-39
2022/11/18 13:18:18;;;;;;;16.25;11.88;;;;;;;0.67;62.84;98545.57;1789325;80;21023;-39
2022/11/18 13:20:57;;;;;;;16.60;11.28;;;;;;;0.60;63.12;98548.70;1789253;80;21102;-39
2022/11/18 13:26:29;;;;;;;14.70;10.43;;;;;;;0.56;63.18;98546.97;1789269;80;20948;-39
2022/11/18 13:29:16;;;;;;;12.93;8.90;;;;;;;0.53;62.68;98535.61;1789439;80;21474;-39
2022/11/18 13:32:19;;;;;;;16.75;11.15;;;;;;;0.51;62.61;98552.45;1789415;80;20985;-39
2022/11/18 13:34:53;;;;;;;19.90;11.93;;;;;;;0.46;62.83;98546.73;1789386;80;21209;-39
2022/11/18 13:37:26;;;;;;;19.10;11.57;;;;;;;0.44;63.34;98547.58;1789179;80;20913;-39
2022/11/18 13:39:53;;;;;;;18.32;12.30;;;;;;;0.42;63.46;98551.91;1789602;80;20994;-39
2022/11/18 13:42:28;;;;;;;16.50;11.93;;;;;;;0.39;63.51;98555.18;1789138;80;21003;-39
2022/11/18 13:45:01;;;;;;;16.97;11.57;;;;;;;0.43;63.35;98560.15;1789076;80;21051;-39
2022/11/18 13:47:40;;;;;;;17.45;12.15;;;;;;;0.39;63.44;98569.84;1789115;79;21882;-39
2022/11/18 13:50:33;;;;;;;18.15;12.18;;;;;;;0.43;63.86;98573.48;1789171;80;20908;-39
2022/11/18 13:53:25;;;;;;;20.97;12.50;;;;;;;0.42;63.68;98584.45;1788993;80;21489;-39
2022/11/18 13:56:07;;;;;;;19.02;12.75;;;;;;;0.37;63.64;98580.05;1789257;80;21028;-39
2022/11/18 13:58:50;;;;;;;22.22;13.35;;;;;;;0.34;63.78;98585.20;1789182;80;20928;-39
2022/11/18 14:01:25;;;;;;;44.58;23.07;;;;;;;0.34;64.15;98587.32;1789152;80;21201;-39
2022/11/18 14:04:08;;;;;;;22.90;16.40;;;;;;;0.35;64.26;98590.23;1789185;80;20912;-39
2022/11/18 14:06:38;;;;;;;42.25;28.87;;;;;;;0.33;64.24;98584.44;1789446;80;21219;-39
2022/11/18 14:09:26;;;;;;;24.55;15.40;;;;;;;0.31;64.31;98590.63;1758908;80;20949;-39
2022/11/18 14:12:15;;;;;;;19.48;13.15;;;;;;;0.29;64.73;98586.13;1789448;80;20991;-39
2022/11/18 14:14:43;;;;;;;17.98;13.43;;;;;;;0.31;64.81;98587.95;1788882;80;21147;-39
2022/11/18 14:17:24;;;;;;;20.55;14.53;;;;;;;0.34;65.15;98587.32;1789434;80;20924;-39
2022/11/18 14:19:53;;;;;;;18.00;13.10;;;;;;;0.38;65.12;98582.96;1789114;80;21018;-39
2022/11/18 14:22:26;;;;;;;15.65;10.30;;;;;;;0.40;64.97;98571.42;1789699;80;20964;-39
2022/11/18 14:24:59;;;;;;;18.02;12.75;;;;;;;0.35;65.07;98578.23;1789471;80;21071;-39
2022/11/18 14:27:41;;;;;;;17.67;12.85;;;;;;;0.30;65.13;98573.05;1789763;80;21480;-39
2022/11/18 14:30:38;;;;;;;17.35;12.88;;;;;;;0.29;65.26;98574.14;1789297;80;20988;-39
2022/11/18 14:33:27;;;;;;;16.02;10.75;;;;;;;0.23;65.35;98587.39;1789091;79;20937;-39
2022/11/18 14:36:14;;;;;;;22.65;14.07;;;;;;;0.22;65.59;98593.81;1789375;80;20991;-39
2022/11/18 14:38:47;;;;;;;20.23;13.60;;;;;;;0.17;65.64;98596.63;1789751;80;21504;-40
2022/11/18 14:44:04;;;;;;;19.25;13.28;;;;;;;0.13;65.83;98596.22;1789359;80;20975;-39
2022/11/18 14:46:31;;;;;;;18.15;13.15;;;;;;;0.14;66.20;98585.80;1791808;80;20904;-40
2022/11/18 14:49:01;;;;;;;17.23;11.95;;;;;;;0.13;66.06;98577.02;1795299;80;20987;-39
2022/11/18 14:51:27;;;;;;;20.27;13.22;;;;;;;0.07;66.32;98588.91;1767638;80;21024;-39